Miley Memorial field
KBPI : now visible

Airfield :











YOU CAN JOIN US ON...

 
LOGIN :

Register | Disclaimer

   EN    FR    IT 

 









Legend :    VFR   Marginal VFR   IFR   Intensive IFR   Very Intensive IFR
Visi :
Ceiling :
>= 8 km
>= 3000ft
5 to 8 km
1000 to 3000 ft
1500m to 5 km
500 to 1000 ft
800 to 1500m
200 to 500 ft
< 800m
< 200 ft
Symbols :   Thunderstorms  Fog  Heavy snow  Heavy precipitations  Wind > 20 kt







- Airport Elevation : 6990 ft


KBPI - Miley Memorial field

CURRENT METAR :
  • 211053Z AUTO 03003KT 10SM CLR M01/M03 A2969 RMK AO2 SLP018 T10111028

EXPIRED METARs :
  • 211008Z AUTO 01005KT 10SM SCT016 M01/M03 A2971 RMK AO2 T10111028
  • 210953Z AUTO 35005KT 10SM BKN017 M01/M02 A2971 RMK AO2 SLP025 T10061017
  • 210939Z AUTO 34006KT 10SM SCT017 00/M02 A2972 RMK AO2 T00001017
  • 210916Z AUTO 01003KT 10SM BKN018 OVC031 02/M01 A2972 RMK AO2 T00171006
  • 210853Z AUTO 01005KT 10SM OVC031 02/00 A2972 RMK AO2 RAE0755 SLP019 P0000 60000 T00170000 58014

TAF KBPI
Valid from the 21 at 06:00 until the 22 at 06:00 UTC


210533Z 2106/2206 36006KT P6SM VCSH SCT030 OVC050
FM210900 02006KT 6SM -SHSNRA OVC015
FM211700 05006KT P6SM -RASN SCT020 BKN030
KZLC FIR / North America



MET'MAP, your aeronautical weather chart ! - Copyright ORBIFLY December 2007 - Disclaimer

ORBIFLY MET'MAP TEAM :

Programming & Development : Alexandra Zaïnal
Concept & Development : Baudouin d'Aumeries
Co-Development & Prog : Marc-Olivier Méhu
Technical & hardware support : Manuel Goepfert

Contact : metmap@orbifly.com




SOURCES & CREDITS :

   NOAA       Earth
Advisory